createdAt,value
2022-09-13T00:01:51.131Z,13.62
2022-09-13T00:11:53.937Z,13.57
2022-09-13T00:21:56.182Z,13.48
2022-09-13T00:31:58.433Z,13.43
2022-09-13T00:42:00.939Z,13.37
2022-09-13T00:52:07.970Z,13.32
2022-09-13T01:02:11.347Z,13.22
2022-09-13T01:12:25.965Z,13.11
2022-09-13T01:22:59.420Z,13.02
2022-09-13T01:33:46.316Z,13.01
2022-09-13T01:43:56.448Z,13.01
2022-09-13T01:54:15.416Z,12.95
2022-09-13T02:04:23.125Z,12.89
2022-09-13T02:14:35.942Z,12.78
2022-09-13T02:24:47.596Z,12.78
2022-09-13T02:35:16.687Z,12.80
2022-09-13T02:45:26.058Z,12.78
2022-09-13T02:55:38.425Z,12.80
2022-09-13T03:05:40.931Z,12.73
2022-09-13T03:16:30.440Z,12.69
2022-09-13T03:27:15.049Z,12.62
2022-09-13T03:37:35.181Z,12.63
2022-09-13T03:47:40.817Z,12.60
2022-09-13T03:57:43.065Z,12.53
2022-09-13T04:07:45.306Z,12.47
2022-09-13T04:17:48.134Z,12.43
2022-09-13T04:28:00.173Z,12.32
2022-09-13T04:38:04.440Z,12.25
2022-09-13T04:48:06.940Z,12.22
2022-09-13T04:58:09.267Z,12.24
2022-09-13T05:08:11.850Z,12.20
2022-09-13T05:18:14.322Z,12.23
2022-09-13T05:28:16.618Z,12.28
2022-09-13T05:38:19.554Z,12.30
2022-09-13T05:48:24.013Z,12.32
2022-09-13T05:58:27.203Z,12.36
2022-09-13T06:08:33.980Z,12.47
2022-09-13T06:18:37.001Z,12.88
2022-09-13T06:28:40.443Z,13.27
2022-09-13T06:38:43.539Z,13.68
2022-09-13T06:48:48.122Z,14.12
2022-09-13T06:59:12.750Z,14.62
2022-09-13T07:09:21.711Z,15.10
2022-09-13T07:19:27.252Z,15.65
2022-09-13T07:29:32.142Z,16.04
2022-09-13T07:39:37.116Z,16.65
2022-09-13T07:49:52.489Z,17.34
2022-09-13T07:59:55.995Z,17.75
2022-09-13T08:10:00.183Z,18.04
2022-09-13T08:20:06.206Z,18.24
2022-09-13T08:30:13.868Z,18.77
2022-09-13T08:40:19.283Z,19.39
2022-09-13T08:50:47.157Z,19.95
2022-09-13T09:01:07.614Z,20.25
2022-09-13T09:11:36.827Z,20.40
2022-09-13T09:21:42.135Z,20.81
2022-09-13T09:42:27.383Z,21.84
2022-09-13T09:52:59.219Z,22.19
2022-09-13T10:03:10.014Z,22.42
2022-09-13T10:13:22.061Z,22.73
2022-09-13T10:23:25.412Z,23.37
2022-09-13T10:33:37.472Z,23.66
2022-09-13T10:43:41.829Z,23.86
2022-09-13T10:54:01.759Z,24.15
2022-09-13T11:04:21.940Z,24.53
2022-09-13T11:14:49.769Z,25.09
2022-09-13T11:25:15.992Z,25.29
2022-09-13T11:35:50.496Z,25.57
2022-09-13T11:46:21.128Z,25.81
2022-09-13T11:56:34.661Z,25.86
2022-09-13T12:06:44.069Z,25.97
2022-09-13T12:16:50.946Z,26.15
2022-09-13T12:27:01.337Z,26.26
2022-09-13T12:37:36.223Z,26.41
2022-09-13T12:48:07.193Z,26.38
2022-09-13T12:58:42.036Z,26.55
2022-09-13T13:08:52.183Z,26.85
2022-09-13T13:19:02.275Z,27.26
2022-09-13T13:29:20.569Z,27.54
2022-09-13T13:39:25.940Z,27.88
2022-09-13T13:49:31.203Z,27.93
2022-09-13T13:59:34.955Z,27.64
2022-09-13T14:10:11.617Z,27.38
2022-09-13T14:20:19.354Z,27.28
2022-09-13T14:30:38.086Z,27.12
2022-09-13T14:40:40.879Z,26.92
2022-09-13T14:50:48.224Z,26.53
2022-09-13T15:00:59.216Z,26.07
2022-09-13T15:11:04.015Z,25.75
2022-09-13T15:21:15.700Z,25.56
2022-09-13T15:31:24.192Z,25.55
2022-09-13T15:41:32.788Z,25.56
2022-09-13T15:51:39.042Z,25.46
2022-09-13T16:01:43.711Z,25.34
2022-09-13T16:11:47.523Z,25.17
2022-09-13T16:32:28.300Z,24.59
2022-09-13T16:42:30.679Z,24.25
2022-09-13T16:52:34.849Z,23.92
2022-09-13T17:02:37.498Z,23.61
2022-09-13T17:12:41.210Z,23.27
2022-09-13T17:22:44.121Z,22.78
2022-09-13T17:32:46.340Z,22.37
2022-09-13T17:42:49.477Z,21.95
2022-09-13T17:52:51.969Z,21.64
2022-09-13T18:02:54.581Z,21.33
2022-09-13T18:12:57.162Z,21.08
2022-09-13T18:22:59.488Z,20.83
2022-09-13T18:33:02.189Z,20.66
2022-09-13T18:43:04.763Z,20.49
2022-09-13T18:53:07.376Z,20.36
2022-09-13T19:03:12.606Z,20.26
2022-09-13T19:13:15.304Z,20.17
2022-09-13T19:23:17.891Z,20.13
2022-09-13T19:33:20.516Z,20.05
2022-09-13T19:43:23.452Z,20.06
2022-09-13T19:53:40.867Z,20.06
2022-09-13T20:03:54.503Z,20.05
2022-09-13T20:13:59.878Z,20.06
2022-09-13T20:24:04.810Z,20.04
2022-09-13T20:34:09.526Z,20.01
2022-09-13T20:44:12.437Z,20.00
2022-09-13T20:54:14.832Z,19.97
2022-09-13T21:04:18.198Z,19.90
2022-09-13T21:14:22.337Z,19.91
2022-09-13T21:24:25.263Z,19.88
2022-09-13T21:34:28.843Z,19.80
2022-09-13T21:44:31.534Z,19.69
2022-09-13T21:54:34.236Z,19.64
2022-09-13T22:04:36.760Z,19.57
2022-09-13T22:14:48.926Z,19.57
2022-09-13T22:24:51.660Z,19.56
2022-09-13T22:34:54.107Z,19.55
2022-09-13T22:44:56.481Z,19.52
2022-09-13T22:54:58.703Z,19.52
2022-09-13T23:05:01.054Z,19.52
2022-09-13T23:15:03.308Z,19.51
2022-09-13T23:25:06.071Z,19.47
2022-09-13T23:35:08.783Z,19.44
2022-09-13T23:45:12.369Z,19.39
2022-09-13T23:55:14.681Z,19.31
